Adel, GA

1:55 PM EDT on July 20, 2019 (GMT -0400)
Val Del Rd | | Change Station

Elev 263 ft 31.11 °N, 83.41 °W | Updated 23 seconds ago

Clear
Clear
90.5 °F
Feels Like 98 °F
N
0
Wind Variable Wind from SSW
Gusts 0.0 mph

Today
High -- | Low -- °F
--% Chance of Precip.
Yesterday
High -- | Low -- °F
Precip. -- in
Pressure 30.09 in
Visibility 10.0 miles
Clouds Few 3600 ft
Scattered Clouds 17000 ft
Mostly Cloudy 19000 ft
Heat Index 98 °F
Dew Point 72 °F
Humidity 54%
Rainfall 0.00 in
Snow Depth Not available.
6:43 AM 8:36 PM
Waning Gibbous, 87% visible
METAR KVAD 201656Z AUTO 00000KT 10SM FEW036 SCT170 BKN190 31/24 A3009 RMK AO2 SLP189 T03100236 $
Pressure 30.09 in
Visibility 10.0 miles
Clouds Few 3600 ft
Scattered Clouds 17000 ft
Mostly Cloudy 19000 ft
Heat Index 98 °F
Dew Point 72 °F
Humidity 54%
Rainfall 0.00 in
Snow Depth Not available.
6:43 AM 8:36 PM
Waning Gibbous, 87% visible
METAR KVAD 201656Z AUTO 00000KT 10SM FEW036 SCT170 BKN190 31/24 A3009 RMK AO2 SLP189 T03100236 $

Get Severe Weather Alerts

Thanks for signing up!

Be on the lookout for a verification email in your inbox.

You'll start receiving the daily forecast at 6 AM.

×

10-Day Weather Forecast

Almanac

Astronomy

Jul. 20, 2019 Rise Set
Actual Time
Civil Twilight
Nautical Twilight
Astronomical Twilight
Moon
Length of Visible Light
Length of Day
Tomorrow will be .
, % of the Moon is Illuminated

Today's Extremes

State Highs State Lows

Community

WunderPhotos

Category 6

Welcome to Category 6. This is the collective home for Weather Underground's featured writeups by Dr. Jeff Masters (right), Bob Henson (left), Chris Burt, and other regular contributors.

Nearby

Air Quality

  Air Quality AQ Index Pollutant
Not available.

Snow Depth

Station Depth Elevation

Earthquake Activity

City Distance Mag. Time & Date
Minimum magnitude displayed is 2.5.

Coastal Water Temperatures

Place Temperature

Stations

Nearby Weather Stations

Station Location Temp. Windchill Dew Point Humidity Wind Precip. Elev Updated Type
                   

Watches & Warnings

There are currently no watches in effect.